Time;durP1;ratioP1;P1;durP2;ratioP2;P2;SDS_P1;SDS_P2;PMS_P1;PMS_P2;Temp;Humidity;BMP_temperature;BMP_pressure;BME280_temperature;BME280_humidity;BME280_pressure;Samples;Min_cycle;Max_cycle;Signal;HPM_P1;HPM_P2
2023/12/12 00:03:39;;;;;;;36.67;17.67;;;;;;;3.84;66.15;99170.91;7819916;32;39192;-81
2023/12/12 00:07:56;;;;;;;37.20;18.90;;;;;;;3.59;66.92;99182.06;7819975;32;40146;-81
2023/12/12 00:12:12;;;;;;;31.10;16.90;;;;;;;3.66;66.88;99180.03;7819656;32;37747;-81
2023/12/12 00:16:29;;;;;;;38.75;17.92;;;;;;;3.80;66.52;99182.44;7819777;32;37186;-81
2023/12/12 00:20:45;;;;;;;37.65;17.17;;;;;;;3.93;66.18;99192.91;7819401;32;39224;-81
2023/12/12 00:25:01;;;;;;;35.50;18.42;;;;;;;4.11;65.59;99181.91;7819692;32;40816;-81
2023/12/12 00:29:18;;;;;;;33.85;17.05;;;;;;;4.14;65.66;99204.88;7819099;32;37924;-82
2023/12/12 00:33:34;;;;;;;45.10;20.25;;;;;;;4.10;65.65;99184.84;7819540;32;37514;-82
2023/12/12 00:37:50;;;;;;;31.70;17.10;;;;;;;4.03;65.80;99195.78;7819568;32;39467;-81
2023/12/12 00:42:07;;;;;;;33.80;17.10;;;;;;;4.26;65.08;99194.00;7819275;32;40035;-82
2023/12/12 00:46:23;;;;;;;33.97;17.48;;;;;;;4.12;65.60;99186.25;7819385;32;37831;-82
2023/12/12 00:50:39;;;;;;;30.05;16.58;;;;;;;4.26;65.01;99188.59;7819294;32;37662;-82
2023/12/12 00:54:58;;;;;;;35.65;18.17;;;;;;;4.39;64.62;99184.78;7819199;32;39391;-82
2023/12/12 00:59:17;;;;;;;35.78;18.15;;;;;;;4.29;64.96;99182.72;7818666;32;39348;-82
2023/12/12 01:03:33;;;;;;;35.90;17.08;;;;;;;3.99;65.75;99193.84;7819011;32;37906;-82
2023/12/12 01:07:50;;;;;;;31.20;16.48;;;;;;;3.95;65.59;99177.31;7818952;32;37186;-82
2023/12/12 01:12:06;;;;;;;30.10;16.62;;;;;;;4.11;65.46;99184.59;7818631;32;39740;-82
2023/12/12 01:16:23;;;;;;;33.70;16.77;;;;;;;4.29;64.95;99183.56;7818825;32;40869;-82
2023/12/12 01:20:41;;;;;;;35.00;17.23;;;;;;;4.12;65.38;99185.41;7818443;32;37814;-82
2023/12/12 01:24:57;;;;;;;33.90;15.93;;;;;;;4.33;64.49;99184.69;7818594;32;37252;-81
2023/12/12 01:29:16;;;;;;;29.27;15.05;;;;;;;4.10;65.21;99201.03;7818552;32;39236;-82
2023/12/12 01:33:32;;;;;;;31.33;15.82;;;;;;;4.16;64.93;99193.81;7818368;32;38789;-81
2023/12/12 01:37:48;;;;;;;36.55;18.67;;;;;;;4.27;65.11;99191.06;7818269;32;37768;-82
2023/12/12 01:42:05;;;;;;;40.50;19.33;;;;;;;4.13;65.63;99195.94;7818180;32;37181;-82
2023/12/12 01:46:21;;;;;;;37.40;19.30;;;;;;;4.27;65.19;99195.63;7818141;32;39273;-81
2023/12/12 01:50:38;;;;;;;33.17;17.83;;;;;;;4.38;64.70;99194.75;7816694;32;40761;-82
2023/12/12 01:54:55;;;;;;;36.13;18.70;;;;;;;4.08;65.14;99193.16;7817816;32;37750;-82
2023/12/12 01:59:11;;;;;;;38.38;18.92;;;;;;;4.24;64.93;99196.97;7816551;32;37042;-81
2023/12/12 02:03:29;;;;;;;36.20;18.08;;;;;;;4.08;65.40;99203.97;7817578;32;40024;-82
2023/12/12 02:07:47;;;;;;;67.20;20.88;;;;;;;4.22;65.02;99200.97;7817888;31;41166;-81
2023/12/12 02:12:04;;;;;;;34.17;17.23;;;;;;;4.23;64.96;99194.50;7817980;32;39453;-81
2023/12/12 02:16:21;;;;;;;36.58;18.30;;;;;;;4.25;64.78;99195.88;7820974;32;37209;-81
2023/12/12 02:20:37;;;;;;;42.70;20.37;;;;;;;4.22;64.68;99190.16;7821264;32;39179;-80
2023/12/12 02:24:53;;;;;;;38.15;18.92;;;;;;;4.13;64.95;99177.06;7821108;32;40754;-81
2023/12/12 02:29:11;;;;;;;33.83;16.98;;;;;;;4.10;65.13;99182.12;7821035;32;37823;-82
2023/12/12 02:33:27;;;;;;;28.40;16.33;;;;;;;4.06;65.07;99179.13;7820000;32;37803;-81
2023/12/12 02:37:44;;;;;;;29.70;16.40;;;;;;;4.14;65.09;99181.41;7820964;32;40044;-80
2023/12/12 02:42:00;;;;;;;223.87;25.80;;;;;;;4.27;64.83;99171.34;7820915;32;40598;-81
2023/12/12 02:46:16;;;;;;;34.67;17.48;;;;;;;3.77;66.71;99191.81;7820742;32;38445;-81
2023/12/12 02:50:33;;;;;;;38.40;18.75;;;;;;;4.07;65.50;99180.75;7820871;32;37174;-82
2023/12/12 02:54:49;;;;;;;48.25;19.40;;;;;;;3.85;66.02;99199.53;7820844;32;40002;-82
2023/12/12 02:59:05;;;;;;;37.50;18.15;;;;;;;4.07;65.71;99202.34;7820659;32;40202;-81
2023/12/12 03:03:22;;;;;;;36.90;18.58;;;;;;;4.04;65.47;99207.41;7820586;32;38702;-81
2023/12/12 03:07:38;;;;;;;42.95;19.98;;;;;;;3.99;65.65;99194.63;7820206;32;37885;-81
2023/12/12 03:11:56;;;;;;;44.10;20.23;;;;;;;3.98;65.67;99203.78;7820409;32;38962;-82
2023/12/12 03:16:13;;;;;;;31.02;16.90;;;;;;;4.02;65.67;99196.84;7820345;32;41210;-82
2023/12/12 03:20:29;;;;;;;33.88;17.80;;;;;;;4.19;64.69;99187.94;7820406;32;38143;-82
2023/12/12 03:24:45;;;;;;;35.72;17.35;;;;;;;4.28;64.38;99191.91;7818744;32;37052;-81
2023/12/12 03:29:01;;;;;;;34.53;16.70;;;;;;;4.31;65.00;99194.91;7820052;32;39211;-81
2023/12/12 03:33:17;;;;;;;33.53;16.45;;;;;;;4.67;64.63;99187.38;7820323;32;40411;-81
2023/12/12 03:37:35;;;;;;;29.42;15.38;;;;;;;4.70;65.26;99189.56;7820225;32;37877;-81
2023/12/12 03:41:51;;;;;;;32.03;14.75;;;;;;;4.65;66.26;99191.38;7820097;32;37174;-81
2023/12/12 03:46:15;;;;;;;28.05;15.63;;;;;;;5.06;64.86;99202.75;7820145;32;39360;-81
2023/12/12 03:50:31;;;;;;;27.62;15.18;;;;;;;4.66;65.29;99201.13;7817528;32;40882;-81
2023/12/12 03:54:48;;;;;;;24.85;14.23;;;;;;;4.82;64.93;99204.84;7818713;32;37994;-81
2023/12/12 03:59:04;;;;;;;29.90;15.70;;;;;;;4.82;65.00;99212.97;7819968;32;37141;-81
2023/12/12 04:03:21;;;;;;;27.75;15.48;;;;;;;4.93;64.79;99201.22;7819713;32;38933;-81
2023/12/12 04:07:38;;;;;;;26.42;14.27;;;;;;;4.91;65.15;99213.34;7819933;32;39905;-81
2023/12/12 04:11:55;;;;;;;28.73;14.82;;;;;;;4.74;65.93;99208.78;7819472;32;38763;-80
2023/12/12 04:16:11;;;;;;;22.85;14.68;;;;;;;4.87;65.31;99213.03;7819868;32;37148;-81
2023/12/12 04:20:28;;;;;;;31.92;16.25;;;;;;;5.04;65.16;99210.31;7819733;32;39341;-80
2023/12/12 04:24:44;;;;;;;27.67;14.77;;;;;;;4.66;66.49;99225.41;7819625;32;39965;-81
2023/12/12 04:29:00;;;;;;;30.80;15.55;;;;;;;5.17;64.47;99223.41;7819402;32;37560;-81
2023/12/12 04:33:16;;;;;;;29.52;14.73;;;;;;;4.92;65.30;99232.00;7819439;32;37726;-81
2023/12/12 04:37:33;;;;;;;29.65;16.75;;;;;;;4.84;65.47;99235.94;7818715;32;39218;-81
2023/12/12 04:41:50;;;;;;;28.65;15.20;;;;;;;5.02;65.04;99228.66;7819285;32;40158;-82
2023/12/12 04:46:07;;;;;;;25.08;15.07;;;;;;;4.95;66.01;99233.38;7819363;32;38447;-81
2023/12/12 04:50:23;;;;;;;31.08;15.55;;;;;;;4.86;66.63;99225.72;7819244;32;37195;-82
2023/12/12 04:54:39;;;;;;;32.75;17.08;;;;;;;5.13;65.42;99214.19;7819023;32;40076;-81
2023/12/12 04:58:56;;;;;;;32.80;16.48;;;;;;;5.04;65.80;99213.00;7819214;32;40157;-82
2023/12/12 05:03:12;;;;;;;29.90;15.93;;;;;;;5.13;65.10;99227.69;7818925;32;38011;-79
2023/12/12 05:07:28;;;;;;;33.63;17.10;;;;;;;4.85;65.99;99237.59;7819118;32;37033;-81
2023/12/12 05:11:45;;;;;;;25.33;15.38;;;;;;;5.07;65.13;99217.88;7818971;32;40042;-81
2023/12/12 05:16:03;;;;;;;28.85;16.02;;;;;;;4.95;65.29;99223.41;7818812;32;39939;-81
2023/12/12 05:20:28;;;;;;;27.58;15.13;;;;;;;4.97;65.93;99239.37;7818759;32;37611;-81
2023/12/12 05:24:44;;;;;;;29.92;15.73;;;;;;;4.84;66.16;99235.12;7817869;32;37672;-83
2023/12/12 05:29:01;;;;;;;32.30;15.55;;;;;;;4.86;65.60;99236.53;7811467;32;39336;-82
2023/12/12 05:33:17;;;;;;;26.87;15.43;;;;;;;4.68;67.12;99242.19;7818395;32;39889;-82
2023/12/12 05:37:33;;;;;;;31.75;15.00;;;;;;;4.88;66.20;99242.50;7817248;32;37829;-85
2023/12/12 05:41:50;;;;;;;27.77;14.63;;;;;;;4.93;65.88;99244.44;7790472;32;36764;-84
2023/12/12 05:46:06;;;;;;;26.70;14.35;;;;;;;4.89;66.80;99254.91;7819097;32;39752;-82
2023/12/12 05:50:24;;;;;;;26.70;13.52;;;;;;;5.33;64.93;99251.50;7821696;32;40984;-81
2023/12/12 05:54:40;;;;;;;23.30;12.52;;;;;;;5.06;64.77;99262.19;7821394;32;38436;-82
2023/12/12 05:58:56;;;;;;;19.73;11.10;;;;;;;5.12;64.58;99272.00;7821104;32;37054;-82
2023/12/12 06:03:12;;;;;;;19.98;11.45;;;;;;;5.17;65.05;99273.97;7821402;32;38981;-82
2023/12/12 06:07:28;;;;;;;20.62;11.12;;;;;;;5.35;64.39;99280.97;7821351;32;40762;-82
2023/12/12 06:11:45;;;;;;;20.88;10.93;;;;;;;5.29;64.68;99273.84;7820480;31;38351;-81
2023/12/12 06:16:01;;;;;;;22.45;11.12;;;;;;;5.44;64.52;99284.87;7821287;32;37201;-82
2023/12/12 06:20:18;;;;;;;17.20;9.60;;;;;;;5.47;64.69;99300.59;7821185;32;40135;-81
2023/12/12 06:24:34;;;;;;;19.60;10.10;;;;;;;5.34;65.49;99307.16;7820753;32;41231;-81
2023/12/12 06:28:50;;;;;;;19.02;9.82;;;;;;;5.44;65.35;99314.63;7820980;32;38083;-81
2023/12/12 06:33:07;;;;;;;15.65;9.27;;;;;;;5.56;64.89;99309.09;7821142;32;37091;-83
2023/12/12 06:37:23;;;;;;;21.30;8.75;;;;;;;5.69;64.96;99324.13;7820753;32;39224;-82
2023/12/12 06:41:39;;;;;;;15.52;8.88;;;;;;;5.70;64.81;99325.78;7820870;32;40838;-83
2023/12/12 06:45:57;;;;;;;19.40;9.43;;;;;;;5.81;64.08;99322.94;7819646;32;37915;-83
2023/12/12 06:50:13;;;;;;;17.20;8.77;;;;;;;5.83;63.97;99328.09;7820803;32;37785;-81
2023/12/12 06:54:30;;;;;;;13.25;8.00;;;;;;;5.73;64.16;99330.69;7820321;32;39250;-81
2023/12/12 06:58:46;;;;;;;16.08;8.70;;;;;;;5.95;63.80;99342.31;7820039;32;39914;-81
2023/12/12 07:03:02;;;;;;;14.40;7.47;;;;;;;5.93;63.97;99335.50;7820697;32;37578;-81
2023/12/12 07:07:19;;;;;;;14.07;7.50;;;;;;;5.81;64.67;99343.75;7820523;32;37051;-82
2023/12/12 07:11:37;;;;;;;13.35;6.93;;;;;;;5.90;65.13;99350.38;7819738;32;40059;-81
2023/12/12 07:15:53;;;;;;;16.52;8.27;;;;;;;5.90;65.67;99342.25;7820599;32;39958;-82
2023/12/12 07:20:11;;;;;;;13.65;7.07;;;;;;;6.07;65.54;99352.22;7819769;32;38747;-82
2023/12/12 07:24:28;;;;;;;12.68;7.00;;;;;;;6.16;65.16;99348.00;7820817;32;35973;-82
2023/12/12 07:28:44;;;;;;;14.30;7.12;;;;;;;6.30;64.77;99361.97;7820239;32;39831;-82
2023/12/12 07:33:02;;;;;;;14.05;7.03;;;;;;;6.25;65.18;99370.84;7820089;32;39728;-82
2023/12/12 07:37:19;;;;;;;11.50;7.50;;;;;;;6.58;63.98;99371.72;7820182;32;38564;-81
2023/12/12 07:41:36;;;;;;;12.68;6.57;;;;;;;6.96;62.97;99373.41;7818497;32;37820;-85
2023/12/12 07:45:52;;;;;;;13.38;6.00;;;;;;;7.06;62.96;99371.88;7819841;32;38906;-78
2023/12/12 07:50:09;;;;;;;12.15;6.85;;;;;;;7.53;64.67;99380.06;7820125;32;39972;-80
2023/12/12 07:54:26;;;;;;;17.15;7.47;;;;;;;7.94;63.44;99379.50;7820092;32;38667;-80
2023/12/12 07:58:42;;;;;;;12.27;6.70;;;;;;;8.57;66.30;99382.19;7819893;32;37692;-80
2023/12/12 08:02:58;;;;;;;14.02;6.35;;;;;;;8.74;60.84;99375.69;7820058;32;38941;-80
2023/12/12 08:07:15;;;;;;;15.48;6.37;;;;;;;8.76;59.42;99384.37;7819967;32;40751;-80
2023/12/12 08:11:31;;;;;;;16.52;6.45;;;;;;;8.92;58.99;99394.19;7819649;32;38793;-80
2023/12/12 08:15:47;;;;;;;15.18;6.82;;;;;;;9.33;58.15;99388.78;7820032;32;37725;-80
2023/12/12 08:20:04;;;;;;;14.25;6.22;;;;;;;9.44;56.95;99388.75;7819886;32;39257;-81
2023/12/12 08:24:20;;;;;;;24.77;13.52;;;;;;;9.53;56.84;99389.84;7819776;32;39695;-81
2023/12/12 08:28:37;;;;;;;14.80;5.62;;;;;;;9.71;56.23;99383.81;7819607;32;38404;-81
2023/12/12 08:32:54;;;;;;;11.07;5.22;;;;;;;9.46;56.37;99395.56;7819717;32;37815;-81
2023/12/12 08:37:10;;;;;;;9.63;4.95;;;;;;;9.63;55.68;99392.53;7819535;32;40407;-81
2023/12/12 08:41:28;;;;;;;14.18;5.57;;;;;;;9.36;55.92;99399.09;7819550;32;40603;-81
2023/12/12 08:45:44;;;;;;;10.45;4.93;;;;;;;9.59;55.24;99386.84;7817729;32;37901;-81
2023/12/12 08:50:01;;;;;;;10.73;5.57;;;;;;;9.52;55.74;99389.03;7801331;32;37108;-81
2023/12/12 08:54:17;;;;;;;12.27;6.05;;;;;;;9.77;55.45;99396.31;7806254;32;39307;-81
2023/12/12 08:58:34;;;;;;;12.98;5.75;;;;;;;9.93;54.81;99396.25;7818820;32;39997;-72
2023/12/12 09:02:50;;;;;;;14.00;5.57;;;;;;;10.36;57.41;99399.41;7811350;32;38611;-82
2023/12/12 09:07:06;;;;;;;14.77;5.70;;;;;;;10.58;54.22;99385.38;7813547;32;37522;-82
2023/12/12 09:11:23;;;;;;;11.45;5.87;;;;;;;10.92;52.69;99389.25;7817492;32;39298;-81
2023/12/12 09:15:39;;;;;;;10.55;4.78;;;;;;;10.93;51.31;99388.16;7805138;32;40743;-81
2023/12/12 09:19:56;;;;;;;10.60;3.72;;;;;;;11.50;51.73;99380.31;7790767;32;38809;-81
2023/12/12 09:24:13;;;;;;;10.82;4.07;;;;;;;11.48;48.38;99364.22;7799350;32;36742;-82
2023/12/12 09:28:29;;;;;;;10.43;4.28;;;;;;;11.62;48.57;99373.38;7807161;32;39183;-83
2023/12/12 09:32:45;;;;;;;10.48;3.87;;;;;;;11.91;48.79;99361.59;7804846;32;39940;-82
2023/12/12 09:37:02;;;;;;;9.85;4.35;;;;;;;11.92;48.13;99357.78;7818037;32;37897;-81
2023/12/12 09:41:22;;;;;;;12.25;4.07;;;;;;;12.10;47.38;99360.84;7817708;32;36824;-81
2023/12/12 09:45:44;;;;;;;12.02;4.72;;;;;;;12.07;47.68;99370.44;7818175;32;38868;-81
2023/12/12 09:50:01;;;;;;;10.80;4.00;;;;;;;12.17;48.17;99369.50;7816989;32;40534;-82
2023/12/12 09:54:17;;;;;;;11.07;4.57;;;;;;;12.60;46.81;99350.31;7816726;32;38707;-81
2023/12/12 09:58:34;;;;;;;9.82;4.25;;;;;;;12.76;47.42;99353.66;7816636;32;37013;-81
2023/12/12 10:02:55;;;;;;;8.73;4.18;;;;;;;12.99;46.74;99356.56;7817774;32;39217;-80
2023/12/12 10:07:14;;;;;;;11.15;3.85;;;;;;;12.99;45.65;99356.56;7817732;32;39895;-81
2023/12/12 10:11:30;;;;;;;8.00;3.40;;;;;;;12.93;45.32;99336.69;7816197;32;37891;-81
2023/12/12 10:15:47;;;;;;;8.55;3.42;;;;;;;13.29;44.99;99339.63;7817471;32;36922;-81
2023/12/12 10:20:04;;;;;;;9.18;3.33;;;;;;;13.47;44.73;99340.72;7807677;32;39365;-80
2023/12/12 10:24:29;;;;;;;8.35;3.75;;;;;;;12.89;44.89;99346.63;7816203;32;39646;-80
2023/12/12 10:28:46;;;;;;;11.55;4.05;;;;;;;13.37;44.51;99348.31;7817027;32;37971;-79
2023/12/12 10:33:11;;;;;;;6.80;3.33;;;;;;;13.40;44.58;99342.22;7818016;32;36969;-79
2023/12/12 10:37:27;;;;;;;8.48;3.37;;;;;;;13.74;44.74;99336.38;7821234;32;39972;-79
2023/12/12 10:41:56;;;;;;;11.05;3.33;;;;;;;13.87;43.68;99326.56;7820925;32;39958;-79
2023/12/12 10:46:14;;;;;;;7.45;3.30;;;;;;;13.95;42.84;99335.97;7820504;32;38489;-80
2023/12/12 10:50:32;;;;;;;6.78;3.30;;;;;;;14.26;43.12;99336.97;7820839;32;35880;-79
2023/12/12 10:54:49;;;;;;;10.13;2.78;;;;;;;14.39;42.32;99340.78;7813992;32;39317;-79
2023/12/12 10:59:06;;;;;;;8.75;3.03;;;;;;;13.81;43.17;99344.19;7818851;32;40755;-82
2023/12/12 11:03:43;;;;;;;8.02;3.50;;;;;;;13.59;43.34;99336.69;7815449;32;38126;-83
2023/12/12 11:08:00;;;;;;;8.38;3.45;;;;;;;14.08;44.70;99340.66;7819574;32;37200;-82
2023/12/12 11:12:16;;;;;;;7.22;3.37;;;;;;;14.37;43.52;99334.00;7819817;32;39982;-86
2023/12/12 11:16:33;;;;;;;8.43;3.08;;;;;;;14.83;42.97;99331.06;7820900;32;39700;-88
2023/12/12 11:20:50;;;;;;;9.18;3.60;;;;;;;14.88;41.16;99326.53;7820544;32;37884;-77
2023/12/12 11:25:08;;;;;;;10.77;3.40;;;;;;;15.12;40.79;99320.75;7819742;32;36792;-82
2023/12/12 11:29:25;;;;;;;9.77;3.65;;;;;;;15.57;40.75;99321.47;7798441;32;38294;-82
2023/12/12 11:34:04;;;;;;;13.48;3.83;;;;;;;15.65;38.26;99322.63;7820316;32;40736;-83
2023/12/12 11:38:33;;;;;;;10.90;3.70;;;;;;;15.93;38.34;99314.97;7819614;32;36942;-79
2023/12/12 11:42:52;;;;;;;13.50;3.87;;;;;;;15.98;38.23;99316.78;7819417;32;36632;-79
2023/12/12 11:47:15;;;;;;;11.88;4.05;;;;;;;15.67;38.05;99311.31;7820085;32;39218;-79
2023/12/12 11:51:34;;;;;;;9.60;4.00;;;;;;;15.73;38.10;99305.38;7820059;32;40087;-80
2023/12/12 11:55:59;;;;;;;14.73;4.43;;;;;;;15.83;38.41;99311.72;7819501;32;37910;-80
2023/12/12 12:00:22;;;;;;;14.68;5.15;;;;;;;14.59;40.30;99306.66;7818469;32;36968;-79
2023/12/12 12:04:38;;;;;;;13.30;4.63;;;;;;;15.30;39.09;99311.47;7818061;32;39196;-80
2023/12/12 12:08:54;;;;;;;7.95;2.80;;;;;;;15.90;38.38;99301.06;7819539;32;39722;-79
2023/12/12 12:13:11;;;;;;;8.27;2.97;;;;;;;15.25;38.85;99299.84;7819585;32;38706;-72
2023/12/12 12:17:38;;;;;;;9.93;2.90;;;;;;;15.76;38.34;99282.78;7819736;32;36749;-71
2023/12/12 12:21:55;;;;;;;9.35;3.28;;;;;;;16.88;37.24;99293.41;7819908;32;38911;-82
2023/12/12 12:26:11;;;;;;;8.27;3.10;;;;;;;17.25;36.47;99293.84;7818489;32;39939;-81
2023/12/12 12:30:28;;;;;;;5.93;2.87;;;;;;;17.97;34.43;99277.47;7819627;32;38018;-82
2023/12/12 12:34:45;;;;;;;7.97;3.28;;;;;;;18.32;34.11;99278.06;7818403;32;36729;-79
2023/12/12 12:39:05;;;;;;;13.38;3.50;;;;;;;18.57;32.99;99281.78;7819557;32;39297;-80
2023/12/12 12:43:22;;;;;;;11.18;3.85;;;;;;;18.37;33.41;99293.63;7819351;32;40703;-80
2023/12/12 12:47:39;;;;;;;7.32;3.03;;;;;;;18.77;32.52;99276.56;7819239;32;37893;-80
2023/12/12 12:51:55;;;;;;;8.70;3.75;;;;;;;18.90;32.49;99271.91;7819418;32;36903;-80
2023/12/12 12:56:11;;;;;;;10.50;3.65;;;;;;;19.05;33.07;99257.44;7818326;32;40816;-80
2023/12/12 13:00:28;;;;;;;11.15;3.65;;;;;;;19.06;32.36;99242.50;7819066;32;39993;-80
2023/12/12 13:04:44;;;;;;;7.30;3.35;;;;;;;19.66;31.57;99226.31;7818870;32;38522;-81
2023/12/12 13:09:01;;;;;;;7.53;2.67;;;;;;;19.63;30.09;99226.22;7819008;32;37011;-83
2023/12/12 13:13:18;;;;;;;7.18;2.47;;;;;;;19.49;30.30;99230.13;7814032;32;148095;-79
2023/12/12 13:17:36;;;;;;;10.10;3.25;;;;;;;18.94;30.60;99228.66;7818831;32;40090;-80
2023/12/12 13:21:53;;;;;;;9.57;2.40;;;;;;;18.82;31.36;99229.44;7817455;32;37924;-80
2023/12/12 13:26:10;;;;;;;6.75;2.78;;;;;;;19.65;29.66;99237.72;7818455;32;37078;-79
2023/12/12 13:30:27;;;;;;;5.72;2.25;;;;;;;21.17;27.04;99235.44;7809736;32;39748;-79
2023/12/12 13:34:45;;;;;;;5.40;2.40;;;;;;;24.10;22.71;99229.81;7801609;32;40773;-80
2023/12/12 13:39:03;;;;;;;12.23;2.70;;;;;;;26.20;20.66;99214.72;7791136;32;37343;-80
2023/12/12 13:43:19;;;;;;;7.20;2.40;;;;;;;25.69;20.10;99227.53;7791008;32;36980;-81
2023/12/12 13:47:36;;;;;;;5.95;2.08;;;;;;;24.63;21.99;99232.50;7790829;32;40073;-82
2023/12/12 13:51:52;;;;;;;4.95;2.15;;;;;;;23.25;22.93;99237.22;7790712;32;39859;-82
2023/12/12 13:56:09;;;;;;;7.78;2.40;;;;;;;20.81;26.20;99267.72;7790663;32;37778;-81
2023/12/12 14:00:27;;;;;;;8.27;3.30;;;;;;;19.86;27.74;99273.56;7790423;32;37654;-82
2023/12/12 14:04:43;;;;;;;7.47;3.00;;;;;;;18.18;30.37;99280.28;7790466;32;40037;-85
2023/12/12 14:09:00;;;;;;;4.97;2.40;;;;;;;17.04;32.50;99288.19;7792920;32;40930;-86
2023/12/12 14:13:16;;;;;;;6.90;2.33;;;;;;;16.24;34.60;99288.53;7793652;32;39104;-86
2023/12/12 14:17:32;;;;;;;14.35;3.60;;;;;;;15.28;36.71;99283.53;7794010;32;37515;-85
2023/12/12 14:21:50;;;;;;;9.43;3.30;;;;;;;14.83;38.20;99295.38;7793905;32;39312;-85
2023/12/12 14:26:07;;;;;;;11.52;5.62;;;;;;;14.13;40.12;99302.16;7793732;32;39895;-86
2023/12/12 14:30:26;;;;;;;11.82;5.22;;;;;;;13.38;41.77;99306.13;7793537;32;38645;-84
2023/12/12 14:34:44;;;;;;;15.02;6.03;;;;;;;13.19;42.50;99300.69;7803823;32;37707;-84
2023/12/12 14:39:01;;;;;;;14.43;6.03;;;;;;;12.76;43.39;99297.03;7820444;32;39046;-71
2023/12/12 14:43:17;;;;;;;13.18;6.12;;;;;;;12.25;48.06;99302.47;7821002;32;39875;-84
2023/12/12 14:47:33;;;;;;;8.80;3.37;;;;;;;12.44;44.95;99303.28;7809358;32;37935;-83
2023/12/12 14:51:51;;;;;;;8.20;3.20;;;;;;;11.87;45.27;99295.00;7806382;32;36995;-86
2023/12/12 14:56:11;;;;;;;7.45;2.62;;;;;;;11.39;45.94;99284.87;7820282;32;40085;-86
2023/12/12 15:00:27;;;;;;;10.57;2.95;;;;;;;11.20;46.01;99287.53;7820591;32;39890;-84
2023/12/12 15:04:44;;;;;;;8.82;2.65;;;;;;;10.63;47.45;99279.03;7819542;32;37950;-84
2023/12/12 15:09:03;;;;;;;16.40;6.78;;;;;;;10.35;48.34;99280.62;7819315;32;37027;-85
2023/12/12 15:13:20;;;;;;;11.30;4.18;;;;;;;10.39;48.74;99273.50;7820163;32;39186;-83
2023/12/12 15:17:37;;;;;;;15.13;5.30;;;;;;;9.84;50.00;99264.53;7819572;32;39892;-83
2023/12/12 15:21:54;;;;;;;10.05;3.50;;;;;;;9.47;51.26;99279.34;7819454;32;38668;-85
2023/12/12 15:26:11;;;;;;;9.57;3.78;;;;;;;9.67;50.73;99276.56;7819803;32;37044;-85
2023/12/12 15:30:31;;;;;;;6.65;3.42;;;;;;;9.51;51.07;99280.44;7819674;32;39312;-85
2023/12/12 15:34:48;;;;;;;7.30;3.37;;;;;;;9.35;51.12;99277.78;7819933;32;40805;-85
2023/12/12 15:39:04;;;;;;;10.15;3.17;;;;;;;9.32;51.38;99272.88;7819442;32;37852;-86
2023/12/12 15:43:21;;;;;;;8.75;3.10;;;;;;;9.18;51.58;99269.13;7819766;32;36760;-86
2023/12/12 15:47:37;;;;;;;5.65;2.83;;;;;;;8.75;53.10;99295.81;7819464;32;39427;-86
2023/12/12 15:51:55;;;;;;;7.57;3.10;;;;;;;8.62;53.39;99284.37;7818444;32;40010;-84
2023/12/12 15:56:12;;;;;;;6.35;3.12;;;;;;;8.70;53.68;99276.78;7819721;32;38574;-84
2023/12/12 16:00:29;;;;;;;7.62;3.70;;;;;;;8.61;53.63;99274.59;7818734;32;37628;-84
2023/12/12 16:04:46;;;;;;;15.15;6.35;;;;;;;8.51;53.72;99271.06;7818727;32;39339;-85
2023/12/12 16:09:05;;;;;;;10.70;4.62;;;;;;;8.27;54.86;99280.50;7818680;32;39720;-84
2023/12/12 16:13:22;;;;;;;12.68;6.70;;;;;;;8.15;56.20;99270.97;7818596;32;37925;-83
2023/12/12 16:17:38;;;;;;;21.62;6.53;;;;;;;8.40;54.90;99262.88;7817942;32;37121;-82
2023/12/12 16:21:57;;;;;;;23.55;11.12;;;;;;;8.18;55.42;99273.97;7818489;32;39274;-83
2023/12/12 16:26:14;;;;;;;17.42;7.28;;;;;;;7.81;55.73;99257.84;7811548;32;39918;-83
2023/12/12 16:30:33;;;;;;;10.50;5.12;;;;;;;7.81;56.66;99255.13;7812054;32;37832;-84
2023/12/12 16:34:52;;;;;;;9.43;4.32;;;;;;;7.94;55.84;99270.13;7810789;32;37539;-84
2023/12/12 16:39:09;;;;;;;9.70;3.15;;;;;;;7.68;56.32;99264.59;7803431;32;39011;-85
2023/12/12 16:43:25;;;;;;;8.85;3.65;;;;;;;7.62;55.93;99271.06;7791473;32;40831;-87
2023/12/12 16:47:42;;;;;;;8.10;3.08;;;;;;;7.57;55.94;99252.06;7791104;32;37837;-83
2023/12/12 16:51:58;;;;;;;10.63;4.60;;;;;;;7.40;56.29;99244.13;7791511;32;37651;-83
2023/12/12 16:56:14;;;;;;;11.65;4.45;;;;;;;7.48;57.78;99247.13;7791828;32;39041;-82
2023/12/12 17:00:31;;;;;;;13.20;4.45;;;;;;;7.46;57.69;99238.44;7798880;32;39775;-81
2023/12/12 17:04:48;;;;;;;32.63;12.05;;;;;;;7.60;56.89;99240.69;7791013;32;37834;-82
2023/12/12 17:09:05;;;;;;;16.23;6.22;;;;;;;7.44;57.50;99235.19;7808586;32;37941;-82
2023/12/12 17:13:21;;;;;;;14.20;6.72;;;;;;;7.40;57.08;99225.13;7818122;32;39879;-81
2023/12/12 17:17:37;;;;;;;13.50;6.68;;;;;;;7.28;58.52;99206.41;7816917;32;40881;-82
2023/12/12 17:21:54;;;;;;;19.40;6.78;;;;;;;7.53;57.55;99205.66;7799900;32;38835;-82
2023/12/12 17:26:10;;;;;;;10.93;6.07;;;;;;;7.49;57.00;99212.72;7811238;32;36984;-82
2023/12/12 17:30:26;;;;;;;13.80;6.70;;;;;;;7.34;57.19;99216.16;7817862;32;39643;-83
2023/12/12 17:34:43;;;;;;;13.38;7.03;;;;;;;7.17;57.49;99234.53;7817681;32;39677;-84
2023/12/12 17:39:00;;;;;;;13.40;6.40;;;;;;;7.19;57.16;99245.91;7817465;32;37552;-83
2023/12/12 17:43:16;;;;;;;13.25;7.32;;;;;;;7.23;56.35;99242.44;7813737;32;36973;-83
2023/12/12 17:47:35;;;;;;;14.35;6.95;;;;;;;7.05;57.27;99249.09;7820332;32;39939;-83
2023/12/12 17:51:53;;;;;;;14.77;6.82;;;;;;;6.92;57.75;99244.13;7820240;32;40798;-82
2023/12/12 17:56:11;;;;;;;16.05;8.38;;;;;;;7.01;57.32;99253.41;7817118;32;36754;-83
2023/12/12 18:00:27;;;;;;;14.25;8.18;;;;;;;7.10;57.10;99257.25;7793185;32;36989;-82
2023/12/12 18:04:43;;;;;;;17.55;7.97;;;;;;;6.80;57.76;99265.19;7800258;32;39948;-83
2023/12/12 18:09:01;;;;;;;17.77;8.82;;;;;;;6.81;57.85;99261.37;7814382;32;39736;-82
2023/12/12 18:13:17;;;;;;;16.90;8.63;;;;;;;6.82;58.04;99246.78;7820774;32;38652;-82
2023/12/12 18:17:37;;;;;;;16.98;8.57;;;;;;;6.99;57.71;99236.59;7820018;32;36334;-83
2023/12/12 18:21:54;;;;;;;18.02;9.35;;;;;;;6.17;60.92;99244.91;7817971;32;39248;-83
2023/12/12 18:26:11;;;;;;;21.67;10.85;;;;;;;6.50;59.66;99232.19;7808936;32;40589;-79
2023/12/12 18:30:28;;;;;;;16.90;9.27;;;;;;;6.58;60.44;99211.94;7812472;32;37823;-80
2023/12/12 18:34:44;;;;;;;23.95;10.15;;;;;;;6.08;61.81;99218.53;7807727;32;36827;-80
2023/12/12 18:39:02;;;;;;;20.67;11.10;;;;;;;6.31;60.90;99201.97;7808777;32;37852;-81
2023/12/12 18:43:18;;;;;;;18.92;9.15;;;;;;;6.27;60.98;99200.84;7805859;32;39929;-81
2023/12/12 18:47:34;;;;;;;17.95;9.65;;;;;;;6.36;60.25;99187.66;7804210;32;38540;-81
2023/12/12 18:51:53;;;;;;;20.88;10.73;;;;;;;6.21;60.39;99196.47;7805800;32;37021;-81
2023/12/12 18:56:10;;;;;;;16.42;10.60;;;;;;;6.15;60.28;99186.66;7804718;32;38352;-80
2023/12/12 19:00:27;;;;;;;19.90;10.55;;;;;;;6.07;60.21;99173.59;7806078;32;39687;-81
2023/12/12 19:04:45;;;;;;;23.20;11.12;;;;;;;6.19;59.60;99152.59;7815512;32;38626;-81
2023/12/12 19:09:01;;;;;;;29.85;12.23;;;;;;;6.20;59.31;99146.13;7819167;32;37088;-81
2023/12/12 19:13:18;;;;;;;22.35;11.57;;;;;;;6.31;60.70;99147.84;7819678;32;39949;-80
2023/12/12 19:17:34;;;;;;;25.00;11.88;;;;;;;6.05;60.84;99160.31;7818718;32;40760;-80
2023/12/12 19:21:51;;;;;;;27.23;14.23;;;;;;;6.23;60.63;99164.56;7819380;32;38601;-81
2023/12/12 19:26:07;;;;;;;23.45;12.75;;;;;;;6.11;61.58;99190.97;7813612;32;37053;-80
2023/12/12 19:30:23;;;;;;;30.23;11.85;;;;;;;6.31;61.17;99185.75;7808672;32;39349;-81
2023/12/12 19:34:40;;;;;;;23.83;12.32;;;;;;;6.37;60.65;99163.03;7819463;32;39992;-82
2023/12/12 19:38:56;;;;;;;24.65;13.55;;;;;;;6.10;61.91;99127.91;7817556;32;38352;-81
2023/12/12 19:43:13;;;;;;;25.52;13.90;;;;;;;6.65;61.48;99109.59;7815027;32;36903;-82
2023/12/12 19:47:29;;;;;;;27.45;13.75;;;;;;;6.23;63.44;99121.25;7802470;32;39195;-81
2023/12/12 19:51:49;;;;;;;37.13;15.68;;;;;;;6.67;62.20;99107.41;7791842;32;40951;-81
2023/12/12 19:56:06;;;;;;;32.67;16.95;;;;;;;6.57;61.28;99112.78;7792362;32;37859;-80
2023/12/12 20:00:22;;;;;;;31.25;15.80;;;;;;;6.00;61.60;99115.13;7812629;32;37866;-80
2023/12/12 20:04:38;;;;;;;29.90;16.42;;;;;;;5.97;62.18;99121.03;7819357;32;39819;-80